createdAt,value
2023-01-13T00:11:10.316Z,99872.22
2023-01-13T00:41:13.195Z,99840.77
2023-01-13T01:11:17.279Z,99816.45
2023-01-13T01:41:20.210Z,99803.61
2023-01-13T02:11:24.567Z,99780.14
2023-01-13T02:41:27.500Z,99751.75
2023-01-13T03:11:31.146Z,99744.61
2023-01-13T03:41:34.182Z,99739.83
2023-01-13T04:11:38.743Z,99736.14
2023-01-13T04:41:41.665Z,99719.88
2023-01-13T05:11:46.040Z,99722.42
2023-01-13T05:41:48.916Z,99720.52
2023-01-13T06:11:53.174Z,99732.42
2023-01-13T06:41:55.988Z,99738.50
2023-01-13T07:12:00.459Z,99744.90
2023-01-13T07:42:03.265Z,99766.72
2023-01-13T08:12:06.832Z,99780.87
2023-01-13T08:42:09.895Z,99792.16
2023-01-13T09:12:13.738Z,99795.86
2023-01-13T09:42:16.568Z,99789.68
2023-01-13T10:12:20.477Z,99781.69
2023-01-13T11:12:27.866Z,99764.00
2023-01-13T11:42:30.715Z,99755.67
2023-01-13T12:12:34.852Z,99773.43
2023-01-13T12:42:37.778Z,99777.63
2023-01-13T13:12:42.183Z,99721.56
2023-01-13T13:42:45.035Z,99744.84
2023-01-13T14:12:48.725Z,99791.27
2023-01-13T14:42:51.675Z,99823.60
2023-01-13T15:12:55.396Z,99861.91
2023-01-13T15:42:58.362Z,99889.34
2023-01-13T16:13:02.133Z,99921.34
2023-01-13T16:43:05.197Z,99957.08
2023-01-13T17:13:15.932Z,99973.88
2023-01-13T17:43:19.702Z,99959.45
2023-01-13T18:13:23.163Z,99978.50
2023-01-13T18:43:26.516Z,99990.81
2023-01-13T19:13:30.546Z,100022.75
2023-01-13T19:43:33.440Z,100042.48
2023-01-13T20:13:37.923Z,100085.09
2023-01-13T20:43:40.804Z,100115.21
2023-01-13T21:13:45.723Z,100110.17
2023-01-13T21:43:49.055Z,100136.94
2023-01-13T22:13:52.934Z,100146.16
2023-01-13T22:43:56.366Z,100165.52
2023-01-13T23:14:00.386Z,100188.38
2023-01-13T23:44:03.848Z,100206.69
